sensor_id;sensor_type;location;lat;lon;timestamp;pressure;altitude;pressure_sealevel;temperature;humidity
63306;BME280;50735;52.060;1.248;2022-10-22T00:00:39;100078.21;;;13.75;63.09
63306;BME280;50735;52.060;1.248;2022-10-22T00:03:07;100076.30;;;13.74;63.03
63306;BME280;50735;52.060;1.248;2022-10-22T00:05:33;100078.24;;;13.71;62.54
63306;BME280;50735;52.060;1.248;2022-10-22T00:07:59;100080.45;;;13.77;62.92
63306;BME280;50735;52.060;1.248;2022-10-22T00:10:26;100083.67;;;13.95;62.54
63306;BME280;50735;52.060;1.248;2022-10-22T00:12:53;100085.46;;;13.99;62.29
63306;BME280;50735;52.060;1.248;2022-10-22T00:15:20;100090.05;;;13.82;62.88
63306;BME280;50735;52.060;1.248;2022-10-22T00:17:47;100088.85;;;13.69;63.31
63306;BME280;50735;52.060;1.248;2022-10-22T00:20:13;100093.45;;;13.86;62.72
63306;BME280;50735;52.060;1.248;2022-10-22T00:22:40;100098.48;;;13.46;63.57
63306;BME280;50735;52.060;1.248;2022-10-22T00:25:07;100095.52;;;13.52;64.08
63306;BME280;50735;52.060;1.248;2022-10-22T00:27:34;100097.88;;;13.28;64.84
63306;BME280;50735;52.060;1.248;2022-10-22T00:30:00;100103.70;;;13.66;64.15
63306;BME280;50735;52.060;1.248;2022-10-22T00:32:27;100106.75;;;13.71;63.96
63306;BME280;50735;52.060;1.248;2022-10-22T00:34:53;100109.04;;;13.89;64.35
63306;BME280;50735;52.060;1.248;2022-10-22T00:37:20;100111.88;;;13.62;64.54
63306;BME280;50735;52.060;1.248;2022-10-22T00:39:47;100106.79;;;13.55;64.45
63306;BME280;50735;52.060;1.248;2022-10-22T00:42:18;100114.24;;;13.49;64.89
63306;BME280;50735;52.060;1.248;2022-10-22T00:45:21;100122.75;;;13.52;65.02
63306;BME280;50735;52.060;1.248;2022-10-22T00:47:52;100115.46;;;13.64;64.30
63306;BME280;50735;52.060;1.248;2022-10-22T00:50:24;100122.54;;;13.44;64.85
63306;BME280;50735;52.060;1.248;2022-10-22T00:52:53;100118.86;;;13.71;64.26
63306;BME280;50735;52.060;1.248;2022-10-22T00:55:21;100121.60;;;13.39;64.59
63306;BME280;50735;52.060;1.248;2022-10-22T00:57:49;100115.36;;;13.14;65.72
63306;BME280;50735;52.060;1.248;2022-10-22T01:00:18;100119.45;;;13.45;65.42
63306;BME280;50735;52.060;1.248;2022-10-22T01:02:46;100123.44;;;13.54;65.37
63306;BME280;50735;52.060;1.248;2022-10-22T01:05:14;100111.61;;;13.51;65.31
63306;BME280;50735;52.060;1.248;2022-10-22T01:07:44;100117.25;;;13.22;65.37
63306;BME280;50735;52.060;1.248;2022-10-22T01:10:21;100115.04;;;12.95;66.09
63306;BME280;50735;52.060;1.248;2022-10-22T01:12:59;100124.09;;;13.35;65.80
63306;BME280;50735;52.060;1.248;2022-10-22T01:15:35;100122.89;;;13.19;65.70
63306;BME280;50735;52.060;1.248;2022-10-22T01:18:07;100127.77;;;13.28;65.27
63306;BME280;50735;52.060;1.248;2022-10-22T01:20:45;100124.11;;;13.62;64.94
63306;BME280;50735;52.060;1.248;2022-10-22T01:23:25;100129.44;;;13.19;65.26
63306;BME280;50735;52.060;1.248;2022-10-22T01:25:59;100134.07;;;12.96;66.25
63306;BME280;50735;52.060;1.248;2022-10-22T01:28:47;100138.52;;;13.02;66.33
63306;BME280;50735;52.060;1.248;2022-10-22T01:31:17;100130.63;;;13.16;65.77
63306;BME280;50735;52.060;1.248;2022-10-22T01:33:47;100138.41;;;13.14;65.35
63306;BME280;50735;52.060;1.248;2022-10-22T01:36:16;100140.17;;;13.57;64.61
63306;BME280;50735;52.060;1.248;2022-10-22T01:38:44;100141.65;;;13.12;65.00
63306;BME280;50735;52.060;1.248;2022-10-22T01:41:12;100141.71;;;13.52;64.96
63306;BME280;50735;52.060;1.248;2022-10-22T01:43:39;100146.67;;;13.38;64.89
63306;BME280;50735;52.060;1.248;2022-10-22T01:46:09;100146.10;;;13.09;65.45
63306;BME280;50735;52.060;1.248;2022-10-22T01:48:45;100149.74;;;13.15;65.35
63306;BME280;50735;52.060;1.248;2022-10-22T01:51:26;100149.26;;;13.63;64.70
63306;BME280;50735;52.060;1.248;2022-10-22T01:54:00;100148.42;;;13.51;64.93
63306;BME280;50735;52.060;1.248;2022-10-22T01:56:43;100154.22;;;13.35;64.78
63306;BME280;50735;52.060;1.248;2022-10-22T01:59:16;100158.29;;;13.31;64.74
63306;BME280;50735;52.060;1.248;2022-10-22T02:01:53;100148.42;;;13.25;65.12
63306;BME280;50735;52.060;1.248;2022-10-22T02:04:26;100149.84;;;13.23;64.94
63306;BME280;50735;52.060;1.248;2022-10-22T02:06:59;100153.10;;;13.39;64.73
63306;BME280;50735;52.060;1.248;2022-10-22T02:09:28;100153.73;;;12.95;64.95
63306;BME280;50735;52.060;1.248;2022-10-22T02:12:00;100158.38;;;12.91;65.02
63306;BME280;50735;52.060;1.248;2022-10-22T02:14:29;100161.27;;;13.20;64.78
63306;BME280;50735;52.060;1.248;2022-10-22T02:16:57;100163.91;;;13.28;64.57
63306;BME280;50735;52.060;1.248;2022-10-22T02:19:29;100172.92;;;13.35;64.72
63306;BME280;50735;52.060;1.248;2022-10-22T02:21:56;100169.19;;;13.14;64.89
63306;BME280;50735;52.060;1.248;2022-10-22T02:24:24;100168.66;;;13.24;64.42
63306;BME280;50735;52.060;1.248;2022-10-22T02:26:56;100175.58;;;12.91;64.58
63306;BME280;50735;52.060;1.248;2022-10-22T02:29:26;100180.48;;;13.34;64.17
63306;BME280;50735;52.060;1.248;2022-10-22T02:31:56;100183.81;;;13.44;64.20
63306;BME280;50735;52.060;1.248;2022-10-22T02:34:27;100189.60;;;12.83;64.96
63306;BME280;50735;52.060;1.248;2022-10-22T02:36:56;100190.01;;;12.53;65.80
63306;BME280;50735;52.060;1.248;2022-10-22T02:39:25;100192.40;;;12.88;66.09
63306;BME280;50735;52.060;1.248;2022-10-22T02:41:52;100191.89;;;12.92;65.43
63306;BME280;50735;52.060;1.248;2022-10-22T02:44:20;100198.33;;;13.19;65.40
63306;BME280;50735;52.060;1.248;2022-10-22T02:46:47;100194.15;;;12.89;65.62
63306;BME280;50735;52.060;1.248;2022-10-22T02:49:15;100196.75;;;12.95;65.65
63306;BME280;50735;52.060;1.248;2022-10-22T02:51:41;100202.47;;;13.02;65.34
63306;BME280;50735;52.060;1.248;2022-10-22T02:54:08;100201.91;;;12.73;65.44
63306;BME280;50735;52.060;1.248;2022-10-22T02:56:35;100211.59;;;13.00;65.99
63306;BME280;50735;52.060;1.248;2022-10-22T02:59:01;100210.85;;;12.99;65.67
63306;BME280;50735;52.060;1.248;2022-10-22T03:01:28;100212.69;;;13.28;65.17
63306;BME280;50735;52.060;1.248;2022-10-22T03:03:55;100210.50;;;13.04;65.29
63306;BME280;50735;52.060;1.248;2022-10-22T03:06:21;100215.32;;;13.24;64.75
63306;BME280;50735;52.060;1.248;2022-10-22T03:08:48;100225.41;;;13.08;65.78
63306;BME280;50735;52.060;1.248;2022-10-22T03:11:15;100225.83;;;12.89;65.91
63306;BME280;50735;52.060;1.248;2022-10-22T03:13:42;100230.37;;;12.66;65.81
63306;BME280;50735;52.060;1.248;2022-10-22T03:16:08;100227.73;;;13.21;65.45
63306;BME280;50735;52.060;1.248;2022-10-22T03:18:35;100226.77;;;13.08;65.13
63306;BME280;50735;52.060;1.248;2022-10-22T03:21:09;100227.09;;;13.33;64.74
63306;BME280;50735;52.060;1.248;2022-10-22T03:23:39;100231.99;;;13.43;64.34
63306;BME280;50735;52.060;1.248;2022-10-22T03:26:08;100237.00;;;13.42;64.05
63306;BME280;50735;52.060;1.248;2022-10-22T03:28:37;100244.36;;;13.62;63.81
63306;BME280;50735;52.060;1.248;2022-10-22T03:31:05;100247.44;;;13.52;63.81
63306;BME280;50735;52.060;1.248;2022-10-22T03:33:32;100252.69;;;13.42;64.11
63306;BME280;50735;52.060;1.248;2022-10-22T03:35:59;100255.40;;;13.38;64.19
63306;BME280;50735;52.060;1.248;2022-10-22T03:38:26;100255.06;;;13.02;64.23
63306;BME280;50735;52.060;1.248;2022-10-22T03:40:54;100258.62;;;13.46;63.89
63306;BME280;50735;52.060;1.248;2022-10-22T03:43:21;100259.76;;;13.31;63.84
63306;BME280;50735;52.060;1.248;2022-10-22T03:45:48;100267.34;;;13.27;63.87
63306;BME280;50735;52.060;1.248;2022-10-22T03:48:14;100270.74;;;13.37;64.31
63306;BME280;50735;52.060;1.248;2022-10-22T03:50:41;100277.96;;;13.30;64.25
63306;BME280;50735;52.060;1.248;2022-10-22T03:53:07;100282.36;;;13.30;64.29
63306;BME280;50735;52.060;1.248;2022-10-22T03:55:34;100283.29;;;12.91;64.78
63306;BME280;50735;52.060;1.248;2022-10-22T03:58:01;100288.64;;;13.22;64.42
63306;BME280;50735;52.060;1.248;2022-10-22T04:00:28;100290.85;;;12.97;64.50
63306;BME280;50735;52.060;1.248;2022-10-22T04:02:54;100291.34;;;13.19;64.40
63306;BME280;50735;52.060;1.248;2022-10-22T04:05:21;100291.69;;;13.04;64.35
63306;BME280;50735;52.060;1.248;2022-10-22T04:07:47;100299.19;;;13.12;64.78
63306;BME280;50735;52.060;1.248;2022-10-22T04:10:15;100303.69;;;13.03;65.00
63306;BME280;50735;52.060;1.248;2022-10-22T04:12:42;100306.96;;;12.98;65.18
63306;BME280;50735;52.060;1.248;2022-10-22T04:15:09;100305.29;;;13.16;64.64
63306;BME280;50735;52.060;1.248;2022-10-22T04:17:36;100308.38;;;13.32;64.14
63306;BME280;50735;52.060;1.248;2022-10-22T04:20:04;100314.92;;;13.44;63.64
63306;BME280;50735;52.060;1.248;2022-10-22T04:22:33;100317.30;;;13.24;63.79
63306;BME280;50735;52.060;1.248;2022-10-22T04:25:00;100319.60;;;13.07;63.41
63306;BME280;50735;52.060;1.248;2022-10-22T04:27:29;100324.85;;;13.26;63.71
63306;BME280;50735;52.060;1.248;2022-10-22T04:29:56;100324.04;;;13.55;63.29
63306;BME280;50735;52.060;1.248;2022-10-22T04:32:22;100328.28;;;13.29;63.49
63306;BME280;50735;52.060;1.248;2022-10-22T04:34:49;100333.86;;;13.18;63.65
63306;BME280;50735;52.060;1.248;2022-10-22T04:37:15;100337.96;;;13.33;63.63
63306;BME280;50735;52.060;1.248;2022-10-22T04:39:42;100338.67;;;13.27;63.81
63306;BME280;50735;52.060;1.248;2022-10-22T04:42:08;100344.12;;;13.19;64.16
63306;BME280;50735;52.060;1.248;2022-10-22T04:44:35;100341.24;;;13.21;63.97
63306;BME280;50735;52.060;1.248;2022-10-22T04:47:01;100350.23;;;12.84;64.84
63306;BME280;50735;52.060;1.248;2022-10-22T04:49:28;100351.48;;;12.98;64.42
63306;BME280;50735;52.060;1.248;2022-10-22T04:51:54;100357.01;;;12.95;64.44
63306;BME280;50735;52.060;1.248;2022-10-22T04:54:21;100365.30;;;12.90;64.55
63306;BME280;50735;52.060;1.248;2022-10-22T04:56:48;100370.86;;;12.91;64.69
63306;BME280;50735;52.060;1.248;2022-10-22T04:59:14;100377.91;;;12.97;64.29
63306;BME280;50735;52.060;1.248;2022-10-22T05:01:42;100379.06;;;13.21;63.82
63306;BME280;50735;52.060;1.248;2022-10-22T05:04:12;100378.61;;;13.16;63.87
63306;BME280;50735;52.060;1.248;2022-10-22T05:06:39;100381.69;;;13.18;63.66
63306;BME280;50735;52.060;1.248;2022-10-22T05:09:11;100390.83;;;13.26;63.54
63306;BME280;50735;52.060;1.248;2022-10-22T05:11:40;100393.77;;;13.25;63.49
63306;BME280;50735;52.060;1.248;2022-10-22T05:14:07;100399.81;;;13.34;63.34
63306;BME280;50735;52.060;1.248;2022-10-22T05:16:34;100403.61;;;13.32;63.15
63306;BME280;50735;52.060;1.248;2022-10-22T05:19:02;100403.31;;;13.18;63.24
63306;BME280;50735;52.060;1.248;2022-10-22T05:21:29;100407.12;;;13.37;62.89
63306;BME280;50735;52.060;1.248;2022-10-22T05:23:57;100410.78;;;13.30;63.28
63306;BME280;50735;52.060;1.248;2022-10-22T05:26:24;100416.10;;;13.36;62.82
63306;BME280;50735;52.060;1.248;2022-10-22T05:28:52;100420.33;;;12.99;63.51
63306;BME280;50735;52.060;1.248;2022-10-22T05:31:19;100427.40;;;13.17;63.24
63306;BME280;50735;52.060;1.248;2022-10-22T05:33:46;100425.54;;;13.12;63.36
63306;BME280;50735;52.060;1.248;2022-10-22T05:36:16;100423.29;;;12.68;63.30
63306;BME280;50735;52.060;1.248;2022-10-22T05:38:43;100425.18;;;12.83;63.15
63306;BME280;50735;52.060;1.248;2022-10-22T05:41:11;100429.58;;;13.20;62.90
63306;BME280;50735;52.060;1.248;2022-10-22T05:43:38;100433.64;;;12.87;62.76
63306;BME280;50735;52.060;1.248;2022-10-22T05:46:06;100434.74;;;13.08;62.90
63306;BME280;50735;52.060;1.248;2022-10-22T05:48:34;100441.85;;;13.11;62.29
63306;BME280;50735;52.060;1.248;2022-10-22T05:51:01;100443.29;;;13.15;62.13
63306;BME280;50735;52.060;1.248;2022-10-22T05:53:29;100448.04;;;13.37;62.35
63306;BME280;50735;52.060;1.248;2022-10-22T05:55:59;100451.80;;;13.38;61.72
63306;BME280;50735;52.060;1.248;2022-10-22T05:58:26;100462.12;;;13.56;61.86
63306;BME280;50735;52.060;1.248;2022-10-22T06:00:52;100467.79;;;13.09;62.15
63306;BME280;50735;52.060;1.248;2022-10-22T06:03:19;100472.59;;;13.36;62.06
63306;BME280;50735;52.060;1.248;2022-10-22T06:05:45;100475.31;;;13.43;61.89
63306;BME280;50735;52.060;1.248;2022-10-22T06:08:12;100475.72;;;13.72;61.83
63306;BME280;50735;52.060;1.248;2022-10-22T06:10:41;100477.41;;;13.49;61.81
63306;BME280;50735;52.060;1.248;2022-10-22T06:13:08;100478.61;;;13.14;62.99
63306;BME280;50735;52.060;1.248;2022-10-22T06:15:35;100484.03;;;13.07;62.64
63306;BME280;50735;52.060;1.248;2022-10-22T06:18:02;100486.12;;;13.24;63.12
63306;BME280;50735;52.060;1.248;2022-10-22T06:20:29;100491.28;;;13.42;62.37
63306;BME280;50735;52.060;1.248;2022-10-22T06:22:55;100491.84;;;13.50;62.34
63306;BME280;50735;52.060;1.248;2022-10-22T06:25:22;100495.61;;;13.09;62.27
63306;BME280;50735;52.060;1.248;2022-10-22T06:27:49;100502.62;;;13.58;62.20
63306;BME280;50735;52.060;1.248;2022-10-22T06:30:16;100505.68;;;13.63;62.00
63306;BME280;50735;52.060;1.248;2022-10-22T06:32:43;100511.95;;;13.63;62.13
63306;BME280;50735;52.060;1.248;2022-10-22T06:35:10;100514.85;;;13.51;62.43
63306;BME280;50735;52.060;1.248;2022-10-22T06:37:37;100517.05;;;13.59;61.97
63306;BME280;50735;52.060;1.248;2022-10-22T06:40:05;100521.53;;;13.43;61.97
63306;BME280;50735;52.060;1.248;2022-10-22T06:42:33;100529.43;;;13.41;62.46
63306;BME280;50735;52.060;1.248;2022-10-22T06:44:59;100535.29;;;13.47;62.50
63306;BME280;50735;52.060;1.248;2022-10-22T06:47:26;100538.21;;;13.31;62.37
63306;BME280;50735;52.060;1.248;2022-10-22T06:49:52;100541.80;;;13.38;62.28
63306;BME280;50735;52.060;1.248;2022-10-22T06:52:19;100541.83;;;13.15;62.88
63306;BME280;50735;52.060;1.248;2022-10-22T06:54:45;100551.37;;;13.11;63.00
63306;BME280;50735;52.060;1.248;2022-10-22T06:57:12;100553.69;;;13.07;63.23
63306;BME280;50735;52.060;1.248;2022-10-22T06:59:38;100559.91;;;13.13;62.89
63306;BME280;50735;52.060;1.248;2022-10-22T07:02:05;100566.45;;;13.15;62.86
63306;BME280;50735;52.060;1.248;2022-10-22T07:04:32;100570.24;;;12.84;63.31
63306;BME280;50735;52.060;1.248;2022-10-22T07:04:33;100570.47;;;12.85;63.30
63306;BME280;50735;52.060;1.248;2022-10-22T07:06:59;100576.59;;;13.04;62.96
63306;BME280;50735;52.060;1.248;2022-10-22T07:09:26;100582.61;;;12.91;63.10
63306;BME280;50735;52.060;1.248;2022-10-22T07:11:52;100586.53;;;12.92;62.41
63306;BME280;50735;52.060;1.248;2022-10-22T07:14:19;100592.33;;;12.67;62.34
63306;BME280;50735;52.060;1.248;2022-10-22T07:16:46;100604.95;;;12.60;61.97
63306;BME280;50735;52.060;1.248;2022-10-22T07:19:13;100610.73;;;12.54;61.88
63306;BME280;50735;52.060;1.248;2022-10-22T07:21:40;100610.76;;;12.71;60.86
63306;BME280;50735;52.060;1.248;2022-10-22T07:24:07;100616.94;;;12.57;60.68
63306;BME280;50735;52.060;1.248;2022-10-22T07:26:34;100622.59;;;12.47;60.35
63306;BME280;50735;52.060;1.248;2022-10-22T07:29:01;100625.87;;;12.69;60.22
63306;BME280;50735;52.060;1.248;2022-10-22T07:31:29;100629.66;;;12.56;60.04
63306;BME280;50735;52.060;1.248;2022-10-22T07:33:56;100636.30;;;12.43;59.95
63306;BME280;50735;52.060;1.248;2022-10-22T07:36:24;100643.05;;;12.51;59.37
63306;BME280;50735;52.060;1.248;2022-10-22T07:38:54;100645.98;;;12.34;59.64
63306;BME280;50735;52.060;1.248;2022-10-22T07:41:21;100656.37;;;12.27;59.68
63306;BME280;50735;52.060;1.248;2022-10-22T07:43:49;100661.99;;;12.50;59.43
63306;BME280;50735;52.060;1.248;2022-10-22T07:46:16;100668.36;;;12.34;59.75
63306;BME280;50735;52.060;1.248;2022-10-22T07:48:43;100672.14;;;12.60;59.28
63306;BME280;50735;52.060;1.248;2022-10-22T07:51:11;100674.99;;;12.73;58.88
63306;BME280;50735;52.060;1.248;2022-10-22T07:53:38;100677.31;;;12.87;58.57
63306;BME280;50735;52.060;1.248;2022-10-22T07:56:06;100674.44;;;12.76;58.74
63306;BME280;50735;52.060;1.248;2022-10-22T07:58:34;100679.05;;;12.87;58.78
63306;BME280;50735;52.060;1.248;2022-10-22T08:01:01;100683.64;;;12.75;58.71
63306;BME280;50735;52.060;1.248;2022-10-22T08:03:28;100685.00;;;12.71;59.12
63306;BME280;50735;52.060;1.248;2022-10-22T08:05:55;100691.51;;;12.17;60.06
63306;BME280;50735;52.060;1.248;2022-10-22T08:08:23;100691.00;;;12.41;59.80
63306;BME280;50735;52.060;1.248;2022-10-22T08:10:51;100697.18;;;12.67;59.36
63306;BME280;50735;52.060;1.248;2022-10-22T08:13:19;100701.93;;;12.60;59.90
63306;BME280;50735;52.060;1.248;2022-10-22T08:15:46;100708.45;;;12.78;59.85
63306;BME280;50735;52.060;1.248;2022-10-22T08:18:12;100713.17;;;12.78;59.56
63306;BME280;50735;52.060;1.248;2022-10-22T08:20:39;100710.70;;;12.89;58.84
63306;BME280;50735;52.060;1.248;2022-10-22T08:23:07;100711.66;;;12.92;58.74
63306;BME280;50735;52.060;1.248;2022-10-22T08:25:34;100719.66;;;13.09;57.85
63306;BME280;50735;52.060;1.248;2022-10-22T08:28:01;100721.59;;;13.26;58.05
63306;BME280;50735;52.060;1.248;2022-10-22T08:30:27;100731.63;;;13.42;57.41
63306;BME280;50735;52.060;1.248;2022-10-22T08:32:54;100730.72;;;13.60;56.28
63306;BME280;50735;52.060;1.248;2022-10-22T08:35:21;100733.16;;;13.61;55.95
63306;BME280;50735;52.060;1.248;2022-10-22T08:37:48;100738.49;;;13.70;55.66
63306;BME280;50735;52.060;1.248;2022-10-22T08:40:20;100750.28;;;13.39;55.84
63306;BME280;50735;52.060;1.248;2022-10-22T08:43:04;100750.94;;;13.22;56.28
63306;BME280;50735;52.060;1.248;2022-10-22T08:45:39;100747.85;;;13.19;56.55
63306;BME280;50735;52.060;1.248;2022-10-22T08:48:18;100750.28;;;13.28;56.47
63306;BME280;50735;52.060;1.248;2022-10-22T08:50:51;100757.18;;;13.24;55.86
63306;BME280;50735;52.060;1.248;2022-10-22T08:53:22;100750.49;;;13.24;55.96
63306;BME280;50735;52.060;1.248;2022-10-22T08:55:52;100752.67;;;13.51;55.42
63306;BME280;50735;52.060;1.248;2022-10-22T08:58:24;100755.27;;;13.35;55.50
63306;BME280;50735;52.060;1.248;2022-10-22T09:00:57;100756.03;;;13.57;55.69
63306;BME280;50735;52.060;1.248;2022-10-22T09:03:33;100752.94;;;13.69;56.51
63306;BME280;50735;52.060;1.248;2022-10-22T09:06:07;100759.40;;;14.15;54.43
63306;BME280;50735;52.060;1.248;2022-10-22T09:08:36;100763.31;;;13.83;54.48
63306;BME280;50735;52.060;1.248;2022-10-22T09:11:12;100763.35;;;13.99;54.39
63306;BME280;50735;52.060;1.248;2022-10-22T09:13:43;100766.14;;;14.21;54.34
63306;BME280;50735;52.060;1.248;2022-10-22T09:16:15;100771.70;;;14.38;54.04
63306;BME280;50735;52.060;1.248;2022-10-22T09:18:52;100773.70;;;14.05;53.65
63306;BME280;50735;52.060;1.248;2022-10-22T09:21:28;100774.60;;;14.92;53.03
63306;BME280;50735;52.060;1.248;2022-10-22T09:24:05;100777.26;;;15.30;51.70
63306;BME280;50735;52.060;1.248;2022-10-22T09:26:37;100780.17;;;15.19;51.38
63306;BME280;50735;52.060;1.248;2022-10-22T09:29:04;100782.22;;;15.03;50.27
63306;BME280;50735;52.060;1.248;2022-10-22T09:31:32;100786.35;;;15.72;49.73
63306;BME280;50735;52.060;1.248;2022-10-22T09:33:59;100780.65;;;16.26;49.13
63306;BME280;50735;52.060;1.248;2022-10-22T09:36:27;100782.98;;;15.98;48.52
63306;BME280;50735;52.060;1.248;2022-10-22T09:38:54;100779.55;;;16.55;47.17
63306;BME280;50735;52.060;1.248;2022-10-22T09:41:25;100778.47;;;16.98;46.40
63306;BME280;50735;52.060;1.248;2022-10-22T09:43:52;100784.46;;;17.32;45.40
63306;BME280;50735;52.060;1.248;2022-10-22T09:46:22;100784.79;;;17.48;44.16
63306;BME280;50735;52.060;1.248;2022-10-22T09:48:59;100783.12;;;17.51;43.32
63306;BME280;50735;52.060;1.248;2022-10-22T09:51:39;100783.71;;;17.36;42.63
63306;BME280;50735;52.060;1.248;2022-10-22T09:54:14;100781.60;;;17.58;42.52
63306;BME280;50735;52.060;1.248;2022-10-22T09:56:42;100785.96;;;18.59;42.22
63306;BME280;50735;52.060;1.248;2022-10-22T09:59:14;100784.73;;;18.60;40.14
63306;BME280;50735;52.060;1.248;2022-10-22T10:01:41;100787.76;;;18.43;40.52
63306;BME280;50735;52.060;1.248;2022-10-22T10:04:11;100783.95;;;18.47;40.21
63306;BME280;50735;52.060;1.248;2022-10-22T10:06:41;100785.45;;;18.51;40.28
63306;BME280;50735;52.060;1.248;2022-10-22T10:09:14;100783.72;;;19.28;39.04
63306;BME280;50735;52.060;1.248;2022-10-22T10:11:45;100792.31;;;18.97;38.75
63306;BME280;50735;52.060;1.248;2022-10-22T10:14:18;100793.41;;;19.40;38.22
63306;BME280;50735;52.060;1.248;2022-10-22T10:16:55;100794.79;;;19.70;38.20
63306;BME280;50735;52.060;1.248;2022-10-22T10:19:34;100801.00;;;20.01;37.47
63306;BME280;50735;52.060;1.248;2022-10-22T10:22:13;100805.20;;;19.99;37.59
63306;BME280;50735;52.060;1.248;2022-10-22T10:24:57;100809.12;;;20.05;37.17
63306;BME280;50735;52.060;1.248;2022-10-22T10:27:34;100817.63;;;20.18;37.64
63306;BME280;50735;52.060;1.248;2022-10-22T10:30:09;100819.58;;;20.14;37.07
63306;BME280;50735;52.060;1.248;2022-10-22T10:32:54;100820.09;;;19.09;37.18
63306;BME280;50735;52.060;1.248;2022-10-22T10:35:28;100831.01;;;19.64;36.52
63306;BME280;50735;52.060;1.248;2022-10-22T10:38:07;100829.53;;;19.69;36.95
63306;BME280;50735;52.060;1.248;2022-10-22T10:40:44;100826.78;;;20.14;36.96
63306;BME280;50735;52.060;1.248;2022-10-22T10:43:17;100824.74;;;20.47;36.18
63306;BME280;50735;52.060;1.248;2022-10-22T10:45:54;100824.82;;;20.07;36.18
63306;BME280;50735;52.060;1.248;2022-10-22T10:48:37;100825.03;;;20.45;35.86
63306;BME280;50735;52.060;1.248;2022-10-22T10:51:20;100828.26;;;20.26;35.16
63306;BME280;50735;52.060;1.248;2022-10-22T10:54:02;100830.00;;;20.36;34.67
63306;BME280;50735;52.060;1.248;2022-10-22T10:56:37;100837.76;;;20.53;34.56
63306;BME280;50735;52.060;1.248;2022-10-22T10:59:13;100835.02;;;20.03;34.42
63306;BME280;50735;52.060;1.248;2022-10-22T11:01:50;100837.77;;;18.88;35.49
63306;BME280;50735;52.060;1.248;2022-10-22T11:04:44;100842.37;;;19.39;35.05
63306;BME280;50735;52.060;1.248;2022-10-22T11:07:18;100836.15;;;20.04;34.99
63306;BME280;50735;52.060;1.248;2022-10-22T11:09:52;100838.14;;;19.82;34.61
63306;BME280;50735;52.060;1.248;2022-10-22T11:12:24;100838.65;;;19.48;34.74
63306;BME280;50735;52.060;1.248;2022-10-22T11:14:57;100844.16;;;18.75;35.14
63306;BME280;50735;52.060;1.248;2022-10-22T11:17:30;100841.46;;;18.90;34.90
63306;BME280;50735;52.060;1.248;2022-10-22T11:20:05;100843.41;;;18.79;35.25
63306;BME280;50735;52.060;1.248;2022-10-22T11:22:35;100839.76;;;18.28;35.82
63306;BME280;50735;52.060;1.248;2022-10-22T11:25:14;100838.09;;;19.03;35.44
63306;BME280;50735;52.060;1.248;2022-10-22T11:27:48;100842.77;;;18.96;35.22
63306;BME280;50735;52.060;1.248;2022-10-22T11:30:20;100842.78;;;18.72;36.06
63306;BME280;50735;52.060;1.248;2022-10-22T11:32:51;100843.79;;;19.02;35.22
63306;BME280;50735;52.060;1.248;2022-10-22T11:35:22;100840.31;;;19.11;34.96
63306;BME280;50735;52.060;1.248;2022-10-22T11:37:50;100843.23;;;19.11;34.58
63306;BME280;50735;52.060;1.248;2022-10-22T11:40:24;100844.32;;;19.70;34.26
63306;BME280;50735;52.060;1.248;2022-10-22T11:43:03;100853.58;;;19.98;33.84
63306;BME280;50735;52.060;1.248;2022-10-22T11:45:34;100849.87;;;19.16;33.83
63306;BME280;50735;52.060;1.248;2022-10-22T11:48:11;100846.16;;;19.38;33.86
63306;BME280;50735;52.060;1.248;2022-10-22T11:50:47;100853.43;;;19.11;33.91
63306;BME280;50735;52.060;1.248;2022-10-22T11:53:18;100848.35;;;19.59;33.71
63306;BME280;50735;52.060;1.248;2022-10-22T11:55:48;100849.14;;;19.58;33.34
63306;BME280;50735;52.060;1.248;2022-10-22T11:58:47;100843.55;;;19.87;33.08
63306;BME280;50735;52.060;1.248;2022-10-22T12:01:22;100844.24;;;19.90;33.01
63306;BME280;50735;52.060;1.248;2022-10-22T12:03:51;100844.85;;;20.16;32.38
63306;BME280;50735;52.060;1.248;2022-10-22T12:06:21;100845.78;;;20.22;31.69
63306;BME280;50735;52.060;1.248;2022-10-22T12:08:55;100846.99;;;20.11;31.43
63306;BME280;50735;52.060;1.248;2022-10-22T12:11:25;100844.68;;;19.72;31.59
63306;BME280;50735;52.060;1.248;2022-10-22T12:14:26;100841.48;;;19.45;32.67
63306;BME280;50735;52.060;1.248;2022-10-22T12:17:02;100845.56;;;19.46;32.71
63306;BME280;50735;52.060;1.248;2022-10-22T12:19:33;100850.89;;;19.52;33.14
63306;BME280;50735;52.060;1.248;2022-10-22T12:22:12;100853.67;;;19.43;33.18
63306;BME280;50735;52.060;1.248;2022-10-22T12:24:42;100856.01;;;19.44;33.63
63306;BME280;50735;52.060;1.248;2022-10-22T12:27:20;100861.00;;;18.95;34.14
63306;BME280;50735;52.060;1.248;2022-10-22T12:29:48;100859.98;;;18.54;34.36
63306;BME280;50735;52.060;1.248;2022-10-22T12:32:15;100863.15;;;18.24;36.73
63306;BME280;50735;52.060;1.248;2022-10-22T12:34:45;100858.30;;;18.20;35.92
63306;BME280;50735;52.060;1.248;2022-10-22T12:37:13;100862.50;;;18.34;36.47
63306;BME280;50735;52.060;1.248;2022-10-22T12:39:40;100858.00;;;18.44;36.21
63306;BME280;50735;52.060;1.248;2022-10-22T12:42:11;100860.37;;;18.56;36.14
63306;BME280;50735;52.060;1.248;2022-10-22T12:44:38;100855.86;;;18.77;36.83
63306;BME280;50735;52.060;1.248;2022-10-22T12:47:06;100849.00;;;18.99;35.78
63306;BME280;50735;52.060;1.248;2022-10-22T12:49:37;100849.69;;;18.96;35.45
63306;BME280;50735;52.060;1.248;2022-10-22T12:52:10;100852.71;;;18.99;35.07
63306;BME280;50735;52.060;1.248;2022-10-22T12:54:39;100852.14;;;19.41;34.99
63306;BME280;50735;52.060;1.248;2022-10-22T12:57:10;100854.93;;;19.32;34.66
63306;BME280;50735;52.060;1.248;2022-10-22T12:59:40;100847.75;;;19.57;34.76
63306;BME280;50735;52.060;1.248;2022-10-22T13:02:15;100849.47;;;19.78;34.48